Time;durP1;ratioP1;P1;durP2;ratioP2;P2;SDS_P1;SDS_P2;PMS_P1;PMS_P2;Temp;Humidity;BMP_temperature;BMP_pressure;BME280_temperature;BME280_humidity;BME280_pressure;Samples;Min_cycle;Max_cycle;Signal;HPM_P1;HPM_P2
2022/04/15 00:00:08;;;;;;;3.50;3.20;;;;;;;3.61;100.00;101135.02;1701555;84;20988;-46
2022/04/15 00:02:42;;;;;;;5.62;4.37;;;;;;;3.55;100.00;101141.75;1711051;83;21700;-46
2022/04/15 00:07:54;;;;;;;10.60;4.67;;;;;;;3.47;100.00;101146.25;1711303;83;21773;-46
2022/04/15 00:10:22;;;;;;;8.20;4.37;;;;;;;3.48;100.00;101140.30;1701296;84;20917;-46
2022/04/15 00:12:51;;;;;;;5.03;4.60;;;;;;;3.56;100.00;101146.44;1711220;83;21031;-46
2022/04/15 00:15:18;;;;;;;6.65;4.08;;;;;;;3.64;100.00;101144.05;1675345;84;20968;-46
2022/04/15 00:17:45;;;;;;;8.20;4.08;;;;;;;3.65;100.00;101132.54;1711135;83;20928;-46
2022/04/15 00:20:13;;;;;;;10.95;4.10;;;;;;;3.65;100.00;101132.54;1701440;84;21147;-46
2022/04/15 00:22:41;;;;;;;9.58;4.00;;;;;;;3.65;100.00;101140.66;1685071;83;21615;-46
2022/04/15 00:25:10;;;;;;;3.90;3.50;;;;;;;3.64;100.00;101133.38;1675479;84;20967;-46
2022/04/15 00:27:38;;;;;;;6.33;4.40;;;;;;;3.57;100.00;101136.24;1710917;83;20876;-46
2022/04/15 00:30:08;;;;;;;4.78;4.25;;;;;;;3.57;100.00;101136.24;1701459;84;21007;-46
2022/04/15 00:32:35;;;;;;;10.68;4.60;;;;;;;3.70;100.00;101133.92;1711082;83;21091;-46
2022/04/15 00:35:03;;;;;;;4.72;4.28;;;;;;;3.70;100.00;101133.92;1701326;84;20928;-46
2022/04/15 00:37:31;;;;;;;6.12;4.20;;;;;;;3.78;100.00;101133.66;1711106;83;20905;-46
2022/04/15 00:40:00;;;;;;;4.05;3.65;;;;;;;3.87;100.00;101134.27;1701423;84;20893;-46
2022/04/15 00:42:27;;;;;;;6.70;4.53;;;;;;;3.88;100.00;101138.55;1711388;83;21055;-46
2022/04/15 00:44:56;;;;;;;8.13;4.12;;;;;;;3.87;100.00;101139.39;1701263;84;22211;-46
2022/04/15 00:47:45;;;;;;;4.40;3.37;;;;;;;3.83;100.00;101142.33;1711133;83;21423;-46
2022/04/15 00:50:11;;;;;;;11.00;5.37;;;;;;;3.77;100.00;101137.48;1701493;84;20968;-46
2022/04/15 00:52:40;;;;;;;14.65;7.97;;;;;;;3.68;100.00;101145.44;1667582;83;20976;-46
2022/04/15 00:55:08;;;;;;;7.47;4.75;;;;;;;3.60;100.00;101144.39;1698274;83;21588;-46
2022/04/15 00:57:36;;;;;;;6.50;4.67;;;;;;;3.42;100.00;101139.34;1695942;84;21902;-46
2022/04/15 01:00:06;;;;;;;9.13;4.00;;;;;;;3.24;100.00;101137.20;1695952;84;20901;-46
2022/04/15 01:02:34;;;;;;;4.90;4.47;;;;;;;3.08;100.00;101138.55;1695840;84;20976;-46
2022/04/15 01:05:05;;;;;;;16.05;8.83;;;;;;;2.98;100.00;101134.06;1695989;84;20964;-46
2022/04/15 01:07:38;;;;;;;30.57;12.47;;;;;;;2.91;100.00;101136.03;1695887;83;21484;-46
2022/04/15 01:10:06;;;;;;;25.40;12.63;;;;;;;2.83;100.00;101130.73;1708061;84;21031;-46
2022/04/15 01:12:37;;;;;;;47.17;20.17;;;;;;;2.80;100.00;101126.82;1696114;84;20885;-46
2022/04/15 01:15:07;;;;;;;13.98;8.25;;;;;;;2.77;100.00;101125.04;1696038;84;20953;-45
2022/04/15 01:17:36;;;;;;;6.95;4.95;;;;;;;2.79;100.00;101121.25;1695860;84;20992;-46
2022/04/15 01:20:04;;;;;;;9.88;5.22;;;;;;;2.78;100.00;101120.38;1696012;84;20991;-46
2022/04/15 01:22:47;;;;;;;5.25;4.75;;;;;;;2.76;100.00;101118.20;1666642;84;21443;-46
2022/04/15 01:25:16;;;;;;;6.05;4.30;;;;;;;2.76;100.00;101116.03;1695932;84;21649;-46
2022/04/15 01:27:48;;;;;;;6.08;4.45;;;;;;;2.72;100.00;101115.12;1695978;84;20995;-46
2022/04/15 01:30:18;;;;;;;10.63;4.75;;;;;;;2.68;100.00;101120.99;1696164;83;20953;-46
2022/04/15 01:32:47;;;;;;;13.85;7.55;;;;;;;2.63;100.00;101123.82;1695984;83;21538;-46
2022/04/15 01:35:15;;;;;;;55.17;31.87;;;;;;;2.57;100.00;101121.56;1695946;84;21249;-46
2022/04/15 01:37:43;;;;;;;38.15;23.98;;;;;;;2.53;100.00;101131.27;1695807;84;20961;-46
2022/04/15 01:40:12;;;;;;;10.40;6.95;;;;;;;2.51;100.00;101130.37;1695810;84;20917;-46
2022/04/15 01:42:41;;;;;;;30.40;21.30;;;;;;;2.46;100.00;101128.52;1695874;84;21435;-46
2022/04/15 01:45:09;;;;;;;45.03;29.98;;;;;;;2.39;100.00;101128.76;1696321;84;21332;-46
2022/04/15 01:47:36;;;;;;;16.97;11.43;;;;;;;2.33;100.00;101134.59;1695857;84;21223;-46
2022/04/15 01:50:08;;;;;;;10.10;8.58;;;;;;;2.29;100.00;101132.79;1695725;83;21113;-46
2022/04/15 01:52:34;;;;;;;13.60;10.15;;;;;;;2.26;100.00;101138.67;1695921;84;21510;-46
2022/04/15 01:55:01;;;;;;;5.12;4.50;;;;;;;2.23;100.00;101130.92;1702484;83;21577;-46
2022/04/15 01:57:29;;;;;;;11.60;5.05;;;;;;;2.20;100.00;101133.41;1716953;83;21486;-46
2022/04/15 01:59:56;;;;;;;10.30;7.95;;;;;;;2.15;100.00;101134.98;1721630;83;21255;-46
2022/04/15 02:02:23;;;;;;;6.12;4.62;;;;;;;2.12;100.00;101142.53;1666925;84;20864;-45
2022/04/15 02:04:51;;;;;;;3.08;2.87;;;;;;;2.10;100.00;101144.17;1692687;84;20959;-46
2022/04/15 02:07:17;;;;;;;5.45;4.75;;;;;;;2.05;100.00;101148.30;1666963;84;20911;-46
2022/04/15 02:09:44;;;;;;;7.08;6.33;;;;;;;1.98;100.00;101148.14;1692617;84;21003;-45
2022/04/15 02:12:11;;;;;;;39.45;28.15;;;;;;;1.94;100.00;101151.44;1692699;84;21262;-45
2022/04/15 02:14:38;;;;;;;9.58;5.87;;;;;;;1.92;100.00;101150.53;1692654;84;20979;-46
2022/04/15 02:17:06;;;;;;;8.58;7.20;;;;;;;1.91;100.00;101152.63;1692807;84;20951;-45
2022/04/15 02:19:32;;;;;;;6.55;5.95;;;;;;;1.85;100.00;101152.03;1692886;84;20958;-45
2022/04/15 02:21:59;;;;;;;9.90;5.97;;;;;;;1.81;100.00;101150.61;1721818;83;20954;-45
2022/04/15 02:24:26;;;;;;;22.32;15.90;;;;;;;1.77;100.00;101152.63;1666890;84;21265;-46
2022/04/15 02:26:52;;;;;;;5.58;5.08;;;;;;;1.75;100.00;101153.00;1692751;84;20935;-45
2022/04/15 02:29:19;;;;;;;4.40;4.00;;;;;;;1.71;100.00;101149.48;1692990;84;21009;-45
2022/04/15 02:31:46;;;;;;;6.53;5.03;;;;;;;1.68;100.00;101151.95;1721798;83;20900;-45
2022/04/15 02:34:14;;;;;;;4.92;4.17;;;;;;;1.64;100.00;101151.41;1692699;84;20985;-46
2022/04/15 02:36:41;;;;;;;6.22;3.70;;;;;;;1.61;100.00;101153.45;1693097;84;22010;-45
2022/04/15 02:39:11;;;;;;;14.25;9.85;;;;;;;1.56;100.00;101155.00;1721634;83;21528;-45
2022/04/15 02:41:39;;;;;;;5.17;4.78;;;;;;;1.52;100.00;101150.23;1721793;83;20899;-45
2022/04/15 02:44:08;;;;;;;4.17;3.77;;;;;;;1.55;100.00;101157.09;1667349;83;20915;-45
2022/04/15 02:46:35;;;;;;;4.67;4.22;;;;;;;1.58;100.00;101161.02;1665561;84;21015;-45
2022/04/15 02:49:04;;;;;;;3.92;3.52;;;;;;;1.57;100.00;101159.28;1721762;83;20886;-46
2022/04/15 02:51:30;;;;;;;7.00;3.95;;;;;;;1.55;100.00;101159.25;1692731;84;20951;-46
2022/04/15 02:53:56;;;;;;;7.08;4.85;;;;;;;1.51;100.00;101157.83;1692871;84;20986;-46
2022/04/15 02:56:24;;;;;;;4.65;4.25;;;;;;;1.48;100.00;101157.74;1677460;84;20995;-46
2022/04/15 02:58:52;;;;;;;2.98;2.77;;;;;;;1.49;100.00;101162.02;1736330;82;21029;-46
2022/04/15 03:01:20;;;;;;;5.17;2.95;;;;;;;1.48;100.00;101165.40;1735949;82;21230;-46
2022/04/15 03:03:48;;;;;;;8.35;4.92;;;;;;;1.45;100.00;101167.44;1735932;82;20996;-46
2022/04/15 03:06:15;;;;;;;4.03;3.72;;;;;;;1.47;100.00;101170.89;1736341;82;21014;-46
2022/04/15 03:08:41;;;;;;;6.37;4.05;;;;;;;1.54;100.00;101165.58;1735946;82;20933;-46
2022/04/15 03:11:08;;;;;;;3.80;3.50;;;;;;;1.53;100.00;101165.13;1735972;82;20893;-46
2022/04/15 03:13:35;;;;;;;5.47;3.58;;;;;;;1.50;100.00;101161.20;1735934;82;21255;-46
2022/04/15 03:16:04;;;;;;;7.50;4.25;;;;;;;1.50;100.00;101165.03;1736032;82;20964;-46
2022/04/15 03:18:32;;;;;;;8.48;5.55;;;;;;;1.51;100.00;101164.21;1736021;82;20933;-46
2022/04/15 03:21:00;;;;;;;24.43;13.72;;;;;;;1.55;100.00;101166.03;1715476;82;20933;-46
2022/04/15 03:23:29;;;;;;;24.72;15.03;;;;;;;1.60;100.00;101168.73;1736057;82;21628;-46
2022/04/15 03:25:55;;;;;;;10.85;6.10;;;;;;;1.62;100.00;101165.81;1735957;82;21245;-46
2022/04/15 03:28:22;;;;;;;8.75;5.03;;;;;;;1.63;100.00;101170.94;1735916;82;20929;-46
2022/04/15 03:30:50;;;;;;;27.85;14.23;;;;;;;1.67;100.00;101166.41;1736020;82;20933;-46
2022/04/15 03:33:17;;;;;;;13.53;4.92;;;;;;;1.68;100.00;101169.42;1735922;82;20984;-46
2022/04/15 03:35:44;;;;;;;10.15;6.20;;;;;;;1.74;100.00;101164.88;1736074;82;21015;-46
2022/04/15 03:38:11;;;;;;;11.12;4.70;;;;;;;1.84;100.00;101169.84;1735972;82;21238;-46
2022/04/15 03:40:38;;;;;;;9.78;6.58;;;;;;;1.89;100.00;101173.82;1735807;82;20976;-46
2022/04/15 03:43:04;;;;;;;5.85;5.00;;;;;;;1.94;100.00;101171.86;1736002;82;20858;-46
2022/04/15 03:45:31;;;;;;;4.87;3.87;;;;;;;1.99;100.00;101177.96;1736021;82;20984;-46
2022/04/15 03:47:58;;;;;;;6.33;4.37;;;;;;;2.08;100.00;101174.80;1736106;82;20921;-44
2022/04/15 03:50:25;;;;;;;5.87;4.33;;;;;;;2.22;100.00;101179.02;1735834;82;21192;-44
2022/04/15 03:52:52;;;;;;;5.22;3.77;;;;;;;2.36;100.00;101182.34;1736000;82;20866;-45
2022/04/15 03:55:22;;;;;;;7.65;3.77;;;;;;;2.55;100.00;101174.78;1716735;81;21513;-45
2022/04/15 03:57:48;;;;;;;6.28;5.03;;;;;;;2.78;100.00;101174.08;1749908;82;20924;-45
2022/04/15 04:00:18;;;;;;;10.93;8.28;;;;;;;3.03;100.00;101173.41;1750037;82;21042;-45
2022/04/15 04:02:46;;;;;;;3.95;3.55;;;;;;;3.24;100.00;101173.47;1722521;82;21154;-45
2022/04/15 04:05:14;;;;;;;4.40;3.30;;;;;;;3.42;100.00;101175.17;1749837;82;20995;-45
2022/04/15 04:07:43;;;;;;;5.75;4.78;;;;;;;3.61;100.00;101181.96;1749915;82;21056;-44
2022/04/15 04:10:15;;;;;;;18.98;11.95;;;;;;;3.83;100.00;101177.30;1749845;82;20869;-45
2022/04/15 04:12:42;;;;;;;9.60;6.80;;;;;;;4.01;100.00;101180.66;1749483;82;20976;-45
2022/04/15 04:15:11;;;;;;;5.05;4.42;;;;;;;4.23;100.00;101183.25;1749706;82;21048;-45
2022/04/15 04:17:38;;;;;;;7.35;4.33;;;;;;;4.47;100.00;101183.27;1749893;82;20925;-45
2022/04/15 04:20:07;;;;;;;7.42;4.12;;;;;;;4.68;100.00;101175.08;1750010;82;20988;-45
2022/04/15 04:22:36;;;;;;;5.60;3.85;;;;;;;4.84;100.00;101177.92;1749910;82;20893;-46
2022/04/15 04:25:03;;;;;;;3.52;3.27;;;;;;;5.02;100.00;101178.63;1749898;82;22496;-45
2022/04/15 04:27:31;;;;;;;5.95;4.00;;;;;;;5.25;100.00;101180.70;1749915;82;20995;-46
2022/04/15 04:29:58;;;;;;;4.28;3.47;;;;;;;5.43;100.00;101186.13;1749784;81;20921;-46
2022/04/15 04:32:24;;;;;;;4.28;3.67;;;;;;;5.58;100.00;101184.19;1750051;80;21596;-47
2022/04/15 04:34:52;;;;;;;6.97;3.55;;;;;;;5.67;100.00;101183.42;1750018;82;21079;-47
2022/04/15 04:37:20;;;;;;;8.25;4.22;;;;;;;5.71;100.00;101187.78;1750258;82;20944;-47
2022/04/15 04:39:47;;;;;;;4.85;3.83;;;;;;;5.80;100.00;101189.58;1749878;82;21102;-46
2022/04/15 04:42:15;;;;;;;5.53;4.25;;;;;;;5.92;100.00;101183.73;1749886;82;20940;-47
2022/04/15 04:44:42;;;;;;;5.92;4.47;;;;;;;6.01;100.00;101185.59;1749863;80;20928;-47
2022/04/15 04:47:09;;;;;;;5.28;4.40;;;;;;;6.16;100.00;101185.79;1722615;82;20979;-47
2022/04/15 04:49:37;;;;;;;8.33;4.58;;;;;;;6.36;100.00;101181.30;1749847;81;21469;-46
2022/04/15 04:52:05;;;;;;;6.22;4.72;;;;;;;6.50;100.00;101184.02;1749741;81;21266;-49
2022/04/15 04:54:32;;;;;;;6.55;4.95;;;;;;;6.65;100.00;101180.72;1749999;82;21447;-45
2022/04/15 04:57:00;;;;;;;6.53;5.17;;;;;;;6.78;100.00;101181.70;1749922;81;21498;-46
2022/04/15 04:59:28;;;;;;;7.15;5.15;;;;;;;6.91;100.00;101178.81;1749731;82;21530;-46
2022/04/15 05:01:55;;;;;;;6.92;4.90;;;;;;;7.03;100.00;101180.62;1749864;82;20929;-46
2022/04/15 05:04:23;;;;;;;11.70;5.40;;;;;;;7.13;100.00;101185.41;1749981;82;20976;-46
2022/04/15 05:06:50;;;;;;;9.38;5.70;;;;;;;7.20;100.00;101187.17;1749971;82;20983;-46
2022/04/15 05:09:16;;;;;;;11.90;5.60;;;;;;;7.23;100.00;101195.36;1738705;82;20964;-46
2022/04/15 05:11:44;;;;;;;10.38;5.20;;;;;;;7.22;94.94;101197.50;1750118;81;21007;-46
2022/04/15 05:14:11;;;;;;;7.25;5.30;;;;;;;7.25;91.43;101191.93;1750069;82;21507;-47
2022/04/15 05:16:39;;;;;;;6.67;5.50;;;;;;;7.29;90.04;101188.96;1749839;82;21285;-47
2022/04/15 05:19:06;;;;;;;6.40;5.40;;;;;;;7.38;89.73;101192.87;1749784;82;21030;-47
2022/04/15 05:21:35;;;;;;;13.32;5.10;;;;;;;7.55;90.03;101189.55;1749856;82;20984;-47
2022/04/15 05:24:02;;;;;;;6.58;5.28;;;;;;;7.61;87.76;101190.45;1749895;82;20944;-46
2022/04/15 05:26:33;;;;;;;6.50;5.25;;;;;;;7.59;85.86;101194.74;1749947;82;20912;-46
2022/04/15 05:29:00;;;;;;;11.45;5.62;;;;;;;7.59;84.83;101198.61;1750011;82;21275;-46
2022/04/15 05:31:27;;;;;;;7.95;5.55;;;;;;;7.64;85.32;101190.03;1749906;82;20963;-46
2022/04/15 05:33:55;;;;;;;8.28;5.37;;;;;;;7.70;84.78;101191.35;1749924;82;20952;-46
2022/04/15 05:36:21;;;;;;;7.80;5.17;;;;;;;7.73;83.48;101194.81;1749616;81;20908;-46
2022/04/15 05:38:49;;;;;;;6.25;5.45;;;;;;;7.78;83.00;101197.39;1750220;82;21587;-46
2022/04/15 05:41:16;;;;;;;9.03;5.55;;;;;;;7.88;82.84;101201.76;1749902;82;21089;-46
2022/04/15 05:43:43;;;;;;;8.23;5.42;;;;;;;7.94;81.18;101199.61;1749785;82;20876;-46
2022/04/15 05:46:11;;;;;;;8.45;5.28;;;;;;;7.98;80.69;101192.77;1749717;81;20841;-46
2022/04/15 05:48:38;;;;;;;6.05;4.30;;;;;;;8.03;80.63;101199.67;1749865;82;20960;-46
2022/04/15 05:51:04;;;;;;;6.55;4.90;;;;;;;8.10;79.71;101191.95;1749950;82;20983;-45
2022/04/15 05:53:31;;;;;;;6.53;5.03;;;;;;;8.15;79.36;101191.12;1749963;82;21147;-47
2022/04/15 05:55:58;;;;;;;7.92;4.70;;;;;;;8.23;77.96;101192.44;1747511;81;20949;-46
2022/04/15 05:58:26;;;;;;;7.65;4.25;;;;;;;8.37;79.44;101189.02;1735976;82;20980;-47
2022/04/15 06:00:53;;;;;;;6.12;4.33;;;;;;;8.47;78.00;101182.59;1736021;82;21502;-46
2022/04/15 06:03:20;;;;;;;6.10;4.83;;;;;;;8.53;77.58;101185.66;1735906;81;21435;-47
2022/04/15 06:05:49;;;;;;;8.53;4.87;;;;;;;8.66;77.88;101182.66;1735935;82;20885;-45
2022/04/15 06:08:16;;;;;;;9.50;4.55;;;;;;;8.79;76.86;101184.83;1735848;82;20969;-47
2022/04/15 06:15:28;;;;;;;7.93;4.53;;;;;;;9.10;75.22;101177.08;1758474;81;20944;-46
2022/04/15 06:17:53;;;;;;;7.85;4.40;;;;;;;9.22;74.94;101181.78;1758055;81;21310;-46
2022/04/15 06:20:22;;;;;;;5.53;4.17;;;;;;;9.37;75.14;101186.09;1758104;81;20928;-47
2022/04/15 06:22:48;;;;;;;9.20;4.35;;;;;;;9.53;74.30;101183.89;1758158;81;21474;-47
2022/04/15 06:25:15;;;;;;;6.50;4.33;;;;;;;9.67;73.92;101183.00;1758003;81;21526;-47
2022/04/15 06:27:42;;;;;;;6.75;4.65;;;;;;;9.82;74.28;101185.52;1758078;81;20869;-47
2022/04/15 06:30:09;;;;;;;16.40;4.70;;;;;;;9.95;73.60;101181.61;1758062;81;21147;-47
2022/04/15 06:32:36;;;;;;;7.20;4.17;;;;;;;10.08;72.20;101182.41;1763947;81;21486;-48
2022/04/15 06:35:04;;;;;;;6.40;3.98;;;;;;;10.17;71.57;101177.19;1758166;81;20944;-47
2022/04/15 06:37:31;;;;;;;4.37;3.67;;;;;;;10.30;70.83;101174.97;1757903;81;20989;-47
2022/04/15 06:39:57;;;;;;;4.75;3.20;;;;;;;10.44;70.74;101175.33;1758042;81;20963;-47
2022/04/15 06:42:27;;;;;;;4.80;3.30;;;;;;;10.62;69.55;101178.26;1758113;81;21320;-46
2022/04/15 06:44:54;;;;;;;2.87;2.65;;;;;;;10.71;67.45;101179.89;1758110;81;20988;-48
2022/04/15 06:47:21;;;;;;;8.58;3.80;;;;;;;10.79;66.50;101179.42;1757945;81;21026;-46
2022/04/15 06:49:47;;;;;;;6.72;3.10;;;;;;;10.94;66.80;101174.55;1758138;81;20928;-46
2022/04/15 06:52:15;;;;;;;5.05;3.80;;;;;;;11.02;66.54;101180.97;1758520;81;20968;-47
2022/04/15 06:54:42;;;;;;;4.10;3.60;;;;;;;11.15;65.97;101181.27;1758027;81;21181;-47
2022/04/15 06:57:09;;;;;;;4.47;3.52;;;;;;;11.25;65.52;101186.37;1758004;81;20881;-46
2022/04/15 06:59:37;;;;;;;5.70;3.52;;;;;;;11.32;64.52;101192.76;1758053;81;20929;-47
2022/04/15 07:02:04;;;;;;;6.35;3.15;;;;;;;11.45;63.98;101189.61;1757833;81;21010;-47
2022/04/15 07:04:32;;;;;;;3.62;3.02;;;;;;;11.54;62.76;101186.06;1758055;81;20920;-47
2022/04/15 07:06:59;;;;;;;15.85;3.60;;;;;;;11.60;62.14;101181.25;1764047;81;21216;-47
2022/04/15 07:09:25;;;;;;;6.33;2.60;;;;;;;11.71;62.22;101181.14;1754133;81;20932;-47
2022/04/15 07:11:54;;;;;;;4.12;2.67;;;;;;;11.90;61.24;101192.14;1750248;81;20937;-47
2022/04/15 07:14:20;;;;;;;4.92;2.52;;;;;;;12.10;60.16;101186.73;1750544;82;20972;-47
2022/04/15 07:16:47;;;;;;;4.53;1.85;;;;;;;12.19;58.73;101187.05;1750562;82;21027;-47
2022/04/15 07:19:14;;;;;;;5.35;2.40;;;;;;;12.29;57.80;101185.19;1750463;81;21158;-47
2022/04/15 07:21:45;;;;;;;5.22;2.00;;;;;;;12.43;57.81;101183.27;1750399;82;20909;-48
2022/04/15 07:24:12;;;;;;;1.85;1.50;;;;;;;12.63;57.81;101188.15;1750280;82;21517;-46
2022/04/15 07:26:40;;;;;;;6.95;1.82;;;;;;;12.81;54.64;101191.35;1750195;81;20877;-46
2022/04/15 07:29:06;;;;;;;6.08;1.87;;;;;;;12.87;54.57;101186.05;1722532;82;21383;-46
2022/04/15 07:31:34;;;;;;;1.80;1.70;;;;;;;13.06;54.10;101186.59;1749994;82;21794;-46
2022/04/15 07:34:01;;;;;;;2.45;1.50;;;;;;;13.29;55.00;101192.28;1749941;82;21546;-46
2022/04/15 07:39:06;;;;;;;2.90;1.57;;;;;;;13.85;51.77;101190.79;1749839;81;20962;-46
2022/04/15 07:41:38;;;;;;;4.70;2.00;;;;;;;13.94;51.60;101187.14;1749858;82;21545;-47
2022/04/15 07:44:08;;;;;;;1.75;1.65;;;;;;;14.07;50.89;101186.02;1750080;82;21166;-47
2022/04/15 07:46:37;;;;;;;4.92;1.82;;;;;;;14.23;49.86;101178.72;1749907;82;21584;-47
2022/04/15 07:49:04;;;;;;;1.92;1.50;;;;;;;14.41;47.84;101180.51;1749355;82;20924;-47
2022/04/15 07:51:32;;;;;;;1.75;1.60;;;;;;;14.70;46.44;101182.87;1749946;82;20954;-47
2022/04/15 07:53:58;;;;;;;1.20;1.10;;;;;;;14.75;44.70;101176.25;1750078;82;20826;-46
2022/04/15 07:56:25;;;;;;;6.67;0.95;;;;;;;14.73;42.86;101177.61;1749959;82;21141;-47
2022/04/15 07:58:52;;;;;;;1.75;1.30;;;;;;;14.52;39.55;101176.32;1749919;81;20983;-47
2022/04/15 08:01:19;;;;;;;1.98;1.42;;;;;;;14.52;42.14;101173.72;1749971;82;20999;-48
2022/04/15 08:03:46;;;;;;;4.53;1.30;;;;;;;14.58;42.50;101169.69;1749748;81;20857;-48
2022/04/15 08:06:14;;;;;;;1.35;1.05;;;;;;;14.49;42.30;101162.95;1749814;81;20995;-46
2022/04/15 08:08:41;;;;;;;2.62;1.20;;;;;;;14.47;41.41;101159.52;1749728;81;21094;-47
2022/04/15 08:11:09;;;;;;;3.33;1.40;;;;;;;14.40;40.95;101162.30;1749811;81;21003;-47
2022/04/15 08:13:37;;;;;;;1.75;1.50;;;;;;;14.42;41.37;101163.98;1749762;80;20932;-47
2022/04/15 08:16:04;;;;;;;2.12;1.17;;;;;;;14.56;41.98;101164.09;1750018;81;20991;-47
2022/04/15 08:18:33;;;;;;;3.50;1.27;;;;;;;14.70;40.48;101168.53;1749930;82;20980;-47
2022/04/15 08:21:01;;;;;;;2.15;1.52;;;;;;;14.87;40.21;101160.33;1749968;82;21015;-47
2022/04/15 08:23:27;;;;;;;4.12;1.72;;;;;;;15.00;40.16;101159.56;1749969;82;20881;-47
2022/04/15 08:25:55;;;;;;;2.20;1.12;;;;;;;15.01;41.36;101166.92;1750076;82;20913;-46
2022/04/15 08:28:23;;;;;;;3.35;1.50;;;;;;;15.14;40.54;101157.03;1749715;81;20940;-47
2022/04/15 08:30:51;;;;;;;1.37;1.10;;;;;;;15.24;39.44;101150.69;1749901;82;20920;-47
2022/04/15 08:33:17;;;;;;;3.20;1.25;;;;;;;15.47;39.46;101154.43;1749894;82;21185;-47
2022/04/15 08:35:47;;;;;;;3.87;1.57;;;;;;;15.53;39.02;101149.03;1749791;81;21392;-47
2022/04/15 08:38:14;;;;;;;1.72;1.27;;;;;;;15.75;40.24;101149.72;1749898;82;20991;-48
2022/04/15 08:40:49;;;;;;;2.75;1.30;;;;;;;15.88;39.46;101151.52;1749862;82;20932;-50
2022/04/15 08:43:15;;;;;;;5.97;1.30;;;;;;;15.69;40.28;101153.83;1749950;82;20971;-49
2022/04/15 08:45:42;;;;;;;1.72;1.30;;;;;;;15.70;39.54;101147.23;1749868;81;21116;-48
2022/04/15 08:48:09;;;;;;;6.08;1.27;;;;;;;15.90;39.73;101147.14;1739057;82;20853;-47
2022/04/15 08:50:36;;;;;;;2.05;1.20;;;;;;;16.16;38.42;101142.88;1739707;82;20900;-47
2022/04/15 08:53:04;;;;;;;1.87;1.10;;;;;;;16.25;38.30;101147.81;1749883;82;20897;-47
2022/04/15 08:55:32;;;;;;;3.17;1.10;;;;;;;16.48;37.88;101136.64;1749931;82;20975;-48
2022/04/15 08:57:59;;;;;;;1.35;1.15;;;;;;;16.65;37.33;101133.47;1749903;82;21102;-47
2022/04/15 09:00:27;;;;;;;1.27;1.17;;;;;;;16.90;37.38;101127.42;1749919;82;20925;-47
2022/04/15 09:02:55;;;;;;;1.52;1.40;;;;;;;17.09;38.35;101126.82;1749835;82;20936;-47
2022/04/15 09:05:26;;;;;;;1.70;1.20;;;;;;;17.02;37.18;101124.87;1749737;81;21557;-48
2022/04/15 09:08:10;;;;;;;3.70;1.27;;;;;;;16.77;36.90;101124.80;1750089;82;20948;-48
2022/04/15 09:10:40;;;;;;;1.35;1.02;;;;;;;16.74;37.48;101117.08;1749833;82;21136;-48
2022/04/15 09:13:20;;;;;;;2.17;1.22;;;;;;;16.79;37.13;101116.45;1738089;81;20889;-48
2022/04/15 09:15:48;;;;;;;2.35;1.30;;;;;;;16.88;36.77;101109.62;1735846;82;21435;-48
2022/04/15 09:18:36;;;;;;;2.35;1.10;;;;;;;16.91;36.67;101118.66;1735867;82;20945;-47
2022/04/15 09:21:28;;;;;;;1.20;1.12;;;;;;;16.84;37.99;101116.31;1735921;82;20941;-47
2022/04/15 09:23:55;;;;;;;1.72;1.25;;;;;;;16.78;35.69;101121.28;1738306;82;21379;-47
2022/04/15 09:26:24;;;;;;;3.40;1.55;;;;;;;16.83;37.32;101112.86;1735814;82;20866;-47
2022/04/15 09:28:53;;;;;;;4.42;1.27;;;;;;;17.16;37.70;101108.69;1735844;81;21565;-47
2022/04/15 09:31:23;;;;;;;3.22;1.10;;;;;;;17.48;36.85;101112.36;1735848;82;20909;-47
2022/04/15 09:33:56;;;;;;;2.95;1.20;;;;;;;17.44;35.90;101109.45;1736044;82;20960;-48
2022/04/15 09:36:32;;;;;;;7.37;1.30;;;;;;;17.60;36.56;101105.34;1736098;82;20913;-48
2022/04/15 09:39:10;;;;;;;5.67;1.67;;;;;;;17.58;37.02;101112.39;1736074;82;20932;-48
2022/04/15 09:41:39;;;;;;;2.47;1.15;;;;;;;17.50;36.51;101111.37;1735710;82;20957;-47
2022/04/15 09:44:09;;;;;;;1.37;1.15;;;;;;;17.28;35.62;101106.52;1735939;82;20953;-48
2022/04/15 09:46:36;;;;;;;7.33;1.42;;;;;;;17.41;35.15;101103.88;1715402;82;21542;-48
2022/04/15 09:49:06;;;;;;;5.30;1.32;;;;;;;17.65;35.99;101097.33;1736005;82;21222;-47
2022/04/15 09:51:37;;;;;;;1.75;1.00;;;;;;;17.70;36.98;101095.38;1735669;82;20909;-47
2022/04/15 09:54:05;;;;;;;1.77;1.20;;;;;;;17.65;36.15;101094.70;1735999;81;20918;-48
2022/04/15 09:56:34;;;;;;;4.03;1.40;;;;;;;17.42;35.62;101087.27;1735984;82;20957;-48
2022/04/15 09:59:08;;;;;;;3.67;1.32;;;;;;;17.26;36.12;101093.52;1735863;82;20984;-48
2022/04/15 10:01:39;;;;;;;1.62;1.50;;;;;;;17.24;36.82;101090.10;1736070;82;21947;-48
2022/04/15 10:04:08;;;;;;;2.98;1.30;;;;;;;17.56;37.01;101088.05;1739543;81;20874;-48
2022/04/15 10:06:35;;;;;;;1.45;1.35;;;;;;;17.81;37.09;101080.13;1735788;81;20969;-49
2022/04/15 10:09:03;;;;;;;1.15;1.10;;;;;;;18.09;36.32;101078.19;1735765;82;20940;-49
2022/04/15 10:11:35;;;;;;;3.20;1.27;;;;;;;18.14;36.13;101074.09;1716102;81;20957;-49
2022/04/15 10:13:59;;;;;;;2.00;1.05;;;;;;;18.31;36.21;101068.98;1756910;81;21850;-48
2022/04/15 10:16:27;;;;;;;2.25;1.20;;;;;;;18.58;35.64;101067.91;1757587;81;20878;-48
2022/04/15 10:18:55;;;;;;;1.70;1.37;;;;;;;18.42;35.52;101063.78;1730347;81;20928;-48
2022/04/15 10:21:22;;;;;;;4.90;1.45;;;;;;;18.10;36.04;101065.48;1729951;81;20896;-49
2022/04/15 10:23:50;;;;;;;2.65;1.50;;;;;;;18.02;36.20;101062.33;1757685;81;20971;-48
2022/04/15 10:26:18;;;;;;;2.08;1.30;;;;;;;18.05;36.13;101063.05;1706073;81;21334;-48
2022/04/15 10:28:47;;;;;;;4.25;1.67;;;;;;;18.02;35.58;101051.86;1757489;81;20880;-48
2022/04/15 10:31:16;;;;;;;1.65;1.55;;;;;;;18.09;36.54;101051.55;1757424;81;20955;-48
2022/04/15 10:33:49;;;;;;;1.27;1.17;;;;;;;18.15;36.79;101043.05;1757660;81;21038;-49
2022/04/15 10:36:17;;;;;;;4.08;1.47;;;;;;;18.55;37.37;101049.22;1757200;81;20967;-48
2022/04/15 10:39:09;;;;;;;1.30;1.05;;;;;;;18.67;35.43;101046.53;1757540;81;21789;-49
2022/04/15 10:41:48;;;;;;;1.20;1.10;;;;;;;18.70;36.74;101042.49;1757620;81;20855;-49
2022/04/15 10:44:29;;;;;;;2.10;1.20;;;;;;;19.02;36.30;101038.07;1757590;81;21435;-48
2022/04/15 10:47:20;;;;;;;1.72;1.20;;;;;;;19.23;35.49;101041.04;1757620;81;20972;-48
2022/04/15 10:50:03;;;;;;;3.70;1.65;;;;;;;19.48;33.75;101043.84;1757652;81;21487;-49
2022/04/15 10:52:34;;;;;;;3.47;1.50;;;;;;;19.46;36.11;101040.44;1757641;81;21537;-49
2022/04/15 10:55:10;;;;;;;2.77;1.22;;;;;;;19.45;34.13;101041.81;1757451;81;20936;-49
2022/04/15 10:57:40;;;;;;;4.05;1.12;;;;;;;19.29;33.55;101041.67;1757700;80;21537;-49
2022/04/15 11:03:28;;;;;;;2.90;1.20;;;;;;;19.01;33.65;101030.67;1757766;81;21516;-48
2022/04/15 11:05:59;;;;;;;2.67;1.40;;;;;;;18.80;35.03;101028.50;1757678;81;21157;-48
2022/04/15 11:08:27;;;;;;;1.47;1.30;;;;;;;19.00;35.19;101019.80;1757634;81;21545;-48
2022/04/15 11:11:01;;;;;;;5.28;1.10;;;;;;;18.97;35.48;101023.84;1757655;81;20967;-49
2022/04/15 11:13:44;;;;;;;1.40;1.30;;;;;;;18.85;34.87;101018.68;1752319;81;20896;-49
2022/04/15 11:16:13;;;;;;;3.92;1.35;;;;;;;18.69;34.98;101015.86;1747767;82;20916;-49
2022/04/15 11:19:00;;;;;;;27.25;1.80;;;;;;;18.57;34.73;101020.33;1750035;82;21687;-49
2022/04/15 11:21:40;;;;;;;4.87;1.10;;;;;;;18.87;35.77;101015.97;1722592;82;20888;-49
2022/04/15 11:24:12;;;;;;;1.40;1.25;;;;;;;18.80;35.23;101008.83;1748923;82;21015;-48
2022/04/15 11:26:42;;;;;;;2.05;1.30;;;;;;;18.62;34.30;101012.67;1750105;82;21419;-49
2022/04/15 11:29:11;;;;;;;1.00;1.00;;;;;;;18.38;36.60;101011.50;1749841;81;21000;-48
2022/04/15 11:31:40;;;;;;;6.45;1.65;;;;;;;18.58;35.95;101005.86;1749899;82;21798;-49
2022/04/15 11:34:11;;;;;;;10.88;1.95;;;;;;;18.67;35.48;100999.34;1749749;82;20853;-48
2022/04/15 11:36:40;;;;;;;2.98;1.20;;;;;;;18.59;34.31;101001.02;1750018;82;21426;-46
2022/04/15 11:39:10;;;;;;;2.33;1.05;;;;;;;18.57;35.23;100997.61;1749885;81;20889;-49
2022/04/15 11:41:44;;;;;;;1.77;0.90;;;;;;;18.37;35.87;100996.69;1749921;81;21245;-48
2022/04/15 11:44:12;;;;;;;1.15;1.05;;;;;;;18.21;35.09;100995.63;1750030;82;21843;-48